Airfield :
LOGIN :

Register | Disclaimer

   EN    FR    IT 

 










Legend :    VFR   Marginal VFR   IFR   Intensive IFR   Very Intensive IFR
Visi :
Ceiling :
>= 8 km
>= 3000ft
5 to 8 km
1000 to 3000 ft
1500m to 5 km
500 to 1000 ft
800 to 1500m
200 to 500 ft
< 800m
< 200 ft
Symbols :   Thunderstorms  Fog  Heavy snow  Heavy precipitations  Wind > 20 kt
SIGMETs :     Misc.  Thunderstorms  Icing  Turbulence  Mountain Waves  Volcanic Ashes







- Airport Elevation : 424 ft
- IATA code : QGY


LHPR - Györ Per

CURRENT METAR :
  • 160445Z AUTO 30008KT CAVOK 03/00 Q1000 RMK BLU

EXPIRED METARs :
  • 160415Z AUTO 30009KT CAVOK 03/00 Q1000 RMK BLU
  • 160345Z AUTO 32008KT CAVOK 03/00 Q1000 RMK BLU
  • 160315Z AUTO 32007KT CAVOK 03/00 Q1000 RMK BLU
  • 160245Z AUTO 34008KT CAVOK 04/00 Q1000 RMK BLU
  • 160215Z AUTO 35009KT CAVOK 04/00 Q1000 RMK BLU

Expired Forecast.
No reported NOTAMs for that airfield.
1 SIGMET reported for the Budapest FIR (LHCC) :
 
Severe icing
LHCC SIGMET 01 VALID 160330/160730 LHBP
LHCC BUDAPEST FIR SEV ICE FCST NE OF LINE N4807 E01953 - N4645 E02136 7000FT/FL140 MOV NE WKN=



MET'MAP, your aeronautical weather chart ! - Copyright ORBIFLY December 2007 - Disclaimer

ORBIFLY MET'MAP TEAM :

Programming & Development : Alexandra Zaïnal
Concept & Development : Baudouin d'Aumeries
Co-Development & Prog : Marc-Olivier Méhu
Technical & hardware support : Manuel Goepfert

Contact : metmap@orbifly.com




SOURCES & CREDITS :

   NOAA